Time;durP1;ratioP1;P1;durP2;ratioP2;P2;SDS_P1;SDS_P2;PMS_P1;PMS_P2;Temp;Humidity;BMP_temperature;BMP_pressure;BME280_temperature;BME280_humidity;BME280_pressure;Samples;Min_cycle;Max_cycle;Signal;HPM_P1;HPM_P2
2021/10/01 00:02:12;;;;;;;11.32;4.05;;;7.70;99.90;;;;;;5070895;28;20424;-87
2021/10/01 00:04:38;;;;;;;8.97;4.43;;;7.70;99.90;;;;;;5051869;28;20383;-88
2021/10/01 00:07:04;;;;;;;10.47;4.13;;;7.60;99.90;;;;;;5068556;28;20431;-87
2021/10/01 00:09:29;;;;;;;10.55;4.28;;;7.60;99.90;;;;;;5068684;28;20398;-89
2021/10/01 00:11:55;;;;;;;9.48;4.55;;;7.60;99.90;;;;;;5051061;28;20390;-88
2021/10/01 00:14:22;;;;;;;8.13;4.00;;;7.60;99.90;;;;;;5050945;28;20397;-88
2021/10/01 00:16:49;;;;;;;9.65;4.10;;;7.60;99.90;;;;;;5068687;28;20374;-88
2021/10/01 00:19:15;;;;;;;9.75;4.20;;;7.60;99.90;;;;;;5069067;28;20362;-88
2021/10/01 00:21:41;;;;;;;6.33;3.97;;;7.50;99.90;;;;;;5050861;28;20575;-88
2021/10/01 00:24:08;;;;;;;8.47;4.23;;;7.50;99.90;;;;;;5050550;28;20477;-87
2021/10/01 00:26:35;;;;;;;17.27;4.88;;;7.50;99.90;;;;;;5050751;28;20389;-88
2021/10/01 00:29:01;;;;;;;7.53;4.53;;;7.40;99.90;;;;;;5068369;28;20434;-88
2021/10/01 00:31:27;;;;;;;11.80;4.87;;;7.30;99.90;;;;;;5051044;28;20464;-87
2021/10/01 00:33:52;;;;;;;7.93;3.87;;;7.30;99.90;;;;;;5050948;28;20401;-87
2021/10/01 00:36:18;;;;;;;16.17;5.67;;;7.30;99.90;;;;;;5050994;28;20402;-87
2021/10/01 00:38:43;;;;;;;18.10;5.40;;;7.20;99.90;;;;;;5050000;28;20394;-87
2021/10/01 00:41:09;;;;;;;6.82;4.45;;;7.20;99.90;;;;;;5050648;28;20378;-87
2021/10/01 00:43:35;;;;;;;8.07;4.70;;;7.10;99.90;;;;;;5068642;28;20382;-87
2021/10/01 00:46:00;;;;;;;10.88;4.45;;;7.10;99.90;;;;;;5050793;28;20732;-87
2021/10/01 00:48:26;;;;;;;10.43;4.63;;;7.00;99.90;;;;;;5068131;28;20412;-87
2021/10/01 00:50:51;;;;;;;12.43;4.63;;;7.00;99.90;;;;;;5050778;28;20993;-87
2021/10/01 00:53:17;;;;;;;14.87;5.10;;;7.00;99.90;;;;;;5068218;28;20791;-88
2021/10/01 00:55:44;;;;;;;11.85;5.03;;;7.00;99.90;;;;;;5050573;28;20393;-87
2021/10/01 00:58:09;;;;;;;8.77;5.05;;;7.00;99.90;;;;;;5050367;28;20399;-87
2021/10/01 01:00:44;;;;;;;7.37;5.07;;;6.90;99.90;;;;;;5050845;28;20386;-87
2021/10/01 01:03:10;;;;;;;16.38;6.22;;;6.90;99.90;;;;;;5068415;28;20489;-87
2021/10/01 01:05:45;;;;;;;7.97;4.90;;;6.90;99.90;;;;;;5050427;28;20461;-87
2021/10/01 01:08:11;;;;;;;11.75;5.38;;;7.00;99.90;;;;;;5049922;28;20467;-89
2021/10/01 01:10:56;;;;;;;12.07;5.28;;;7.00;99.90;;;;;;5050473;28;20417;-88
2021/10/01 01:13:38;;;;;;;9.20;5.13;;;6.90;99.90;;;;;;5068207;28;20410;-88
2021/10/01 01:16:09;;;;;;;7.57;4.60;;;6.90;99.90;;;;;;5050646;28;20386;-87
2021/10/01 01:18:40;;;;;;;6.40;4.20;;;6.90;99.90;;;;;;5050011;28;20386;-88
2021/10/01 01:21:06;;;;;;;11.02;4.88;;;6.80;99.90;;;;;;5050389;28;20404;-88
2021/10/01 01:24:09;;;;;;;10.73;5.10;;;6.80;99.90;;;;;;5070132;28;20731;-87
2021/10/01 01:26:56;;;;;;;7.32;4.88;;;6.80;99.90;;;;;;5054118;28;20397;-87
2021/10/01 01:29:34;;;;;;;7.22;5.18;;;6.80;99.90;;;;;;5054035;28;20409;-89
2021/10/01 01:32:01;;;;;;;9.15;5.32;;;6.80;99.90;;;;;;5053542;28;20381;-87
2021/10/01 01:34:37;;;;;;;10.85;5.60;;;6.80;99.90;;;;;;5053929;28;20378;-88
2021/10/01 01:37:10;;;;;;;8.52;4.53;;;6.70;99.90;;;;;;5053902;28;20374;-87
2021/10/01 01:39:38;;;;;;;8.57;4.80;;;6.70;99.90;;;;;;5053860;28;20386;-87
2021/10/01 01:42:05;;;;;;;8.47;4.60;;;6.70;99.90;;;;;;5071817;28;20378;-87
2021/10/01 01:44:33;;;;;;;7.47;4.60;;;6.70;99.90;;;;;;5054049;28;20374;-87
2021/10/01 01:47:00;;;;;;;6.20;4.88;;;6.60;99.90;;;;;;5053567;28;20410;-87
2021/10/01 01:49:28;;;;;;;5.75;4.70;;;6.60;99.90;;;;;;5053852;28;20394;-87
2021/10/01 01:51:56;;;;;;;7.93;5.33;;;6.70;99.90;;;;;;5071675;28;20386;-88
2021/10/01 01:54:25;;;;;;;6.30;4.57;;;6.60;99.90;;;;;;5053642;28;20455;-87
2021/10/01 01:56:52;;;;;;;8.88;4.88;;;6.60;99.90;;;;;;5052905;28;20382;-88
2021/10/01 01:59:19;;;;;;;10.38;5.80;;;6.60;99.90;;;;;;5053834;28;20875;-88
2021/10/01 02:01:45;;;;;;;9.73;5.63;;;6.60;99.90;;;;;;5071420;28;20381;-88
2021/10/01 02:04:11;;;;;;;7.18;4.90;;;6.60;99.90;;;;;;5053885;28;20379;-87
2021/10/01 02:06:38;;;;;;;9.88;5.10;;;6.60;99.90;;;;;;5053474;28;20396;-87
2021/10/01 02:09:05;;;;;;;8.55;5.07;;;6.60;99.90;;;;;;5053456;28;20406;-88
2021/10/01 02:11:31;;;;;;;6.65;4.90;;;6.60;99.90;;;;;;5052866;28;20444;-87
2021/10/01 02:13:59;;;;;;;11.02;6.03;;;6.50;99.90;;;;;;5071766;28;20874;-87
2021/10/01 02:16:26;;;;;;;7.22;5.57;;;6.60;99.90;;;;;;5053365;28;20389;-87
2021/10/01 02:18:54;;;;;;;10.45;5.65;;;6.60;99.90;;;;;;5052921;28;20418;-88
2021/10/01 02:21:22;;;;;;;7.68;5.28;;;6.60;99.90;;;;;;5053011;28;20386;-88
2021/10/01 02:23:48;;;;;;;10.77;5.93;;;6.60;99.90;;;;;;5053550;28;20534;-87
2021/10/01 02:26:34;;;;;;;16.42;6.18;;;6.60;99.90;;;;;;5053057;28;20402;-86
2021/10/01 02:29:09;;;;;;;8.00;5.93;;;6.60;99.90;;;;;;5049622;28;20436;-87
2021/10/01 02:31:47;;;;;;;7.70;5.75;;;6.60;99.90;;;;;;5053334;28;20394;-87
2021/10/01 02:34:15;;;;;;;17.13;6.30;;;6.60;99.90;;;;;;5053041;28;20385;-87
2021/10/01 02:36:41;;;;;;;9.73;6.53;;;6.60;99.90;;;;;;5071008;28;20386;-88
2021/10/01 02:39:07;;;;;;;10.27;6.30;;;6.60;99.90;;;;;;5052742;28;20435;-88
2021/10/01 02:41:32;;;;;;;9.27;6.10;;;6.50;99.90;;;;;;5071230;28;20838;-87
2021/10/01 02:43:58;;;;;;;11.02;6.03;;;6.60;99.90;;;;;;5052750;28;20385;-88
2021/10/01 02:46:23;;;;;;;12.63;6.50;;;6.60;99.90;;;;;;5052854;28;20389;-88
2021/10/01 02:48:49;;;;;;;9.27;6.23;;;6.60;99.90;;;;;;5052785;28;20488;-88
2021/10/01 02:51:19;;;;;;;11.27;6.65;;;6.60;99.90;;;;;;5053115;28;20362;-88
2021/10/01 02:54:00;;;;;;;10.97;6.40;;;6.60;99.90;;;;;;5070483;28;22451;-88
2021/10/01 02:56:35;;;;;;;8.43;6.30;;;6.60;99.90;;;;;;5052367;28;21027;-88
2021/10/01 02:59:03;;;;;;;9.75;6.57;;;6.60;99.90;;;;;;5052709;28;20512;-89
2021/10/01 03:01:30;;;;;;;13.57;6.80;;;6.70;99.90;;;;;;5070848;28;20370;-87
2021/10/01 03:04:04;;;;;;;10.38;7.15;;;6.70;99.90;;;;;;5053011;28;20436;-88
2021/10/01 03:06:33;;;;;;;10.15;6.90;;;6.60;99.90;;;;;;5053269;28;20469;-89
2021/10/01 03:08:59;;;;;;;13.18;6.72;;;6.70;99.90;;;;;;5052169;28;20405;-88
2021/10/01 03:11:28;;;;;;;9.77;7.10;;;6.70;99.90;;;;;;5069757;28;20461;-88
2021/10/01 03:13:54;;;;;;;9.23;6.90;;;6.70;99.90;;;;;;5070445;28;20375;-87
2021/10/01 03:16:21;;;;;;;8.60;6.85;;;6.70;99.90;;;;;;5052212;28;20371;-88
2021/10/01 03:18:49;;;;;;;10.48;7.07;;;6.70;99.90;;;;;;5051651;28;20382;-86
2021/10/01 03:21:17;;;;;;;10.90;7.00;;;6.70;99.90;;;;;;5051881;28;20394;-88
2021/10/01 03:23:43;;;;;;;11.47;7.83;;;6.70;99.90;;;;;;5051975;28;20867;-89
2021/10/01 03:26:10;;;;;;;10.52;7.80;;;6.60;99.90;;;;;;5051297;28;20432;-87
2021/10/01 03:28:37;;;;;;;12.13;7.25;;;6.60;99.90;;;;;;5051254;28;20394;-88
2021/10/01 03:31:04;;;;;;;11.50;7.00;;;6.60;99.90;;;;;;5052197;28;20378;-86
2021/10/01 03:33:30;;;;;;;11.07;7.20;;;6.60;99.90;;;;;;5070114;28;20389;-88
2021/10/01 03:35:56;;;;;;;10.33;7.20;;;6.60;99.90;;;;;;5052186;28;20378;-89
2021/10/01 03:38:23;;;;;;;8.65;7.00;;;6.70;99.90;;;;;;5056079;28;20425;-87
2021/10/01 03:40:49;;;;;;;11.85;7.53;;;6.60;99.90;;;;;;5069839;28;20465;-87
2021/10/01 03:43:16;;;;;;;10.67;7.20;;;6.60;99.90;;;;;;5069714;28;20389;-87
2021/10/01 03:45:43;;;;;;;8.10;7.30;;;6.60;99.90;;;;;;5051006;28;20386;-87
2021/10/01 03:48:09;;;;;;;11.02;7.80;;;6.60;99.90;;;;;;5052085;28;20840;-87
2021/10/01 03:50:35;;;;;;;12.87;7.60;;;6.60;99.90;;;;;;5071674;28;20879;-87
2021/10/01 03:53:01;;;;;;;12.48;8.70;;;6.60;99.90;;;;;;5052661;28;20763;-88
2021/10/01 03:55:28;;;;;;;17.25;8.00;;;6.50;99.90;;;;;;5051535;28;20390;-88
2021/10/01 03:57:53;;;;;;;12.50;8.13;;;6.60;99.90;;;;;;5069105;28;20370;-88
2021/10/01 04:00:20;;;;;;;17.53;9.17;;;6.60;99.90;;;;;;5051193;28;20385;-87
2021/10/01 04:02:45;;;;;;;18.85;9.15;;;6.60;99.90;;;;;;5069164;28;20379;-87
2021/10/01 04:05:13;;;;;;;12.05;8.30;;;6.60;99.90;;;;;;5069549;28;20423;-88
2021/10/01 04:07:38;;;;;;;10.93;8.13;;;6.70;99.90;;;;;;5050862;28;20382;-88
2021/10/01 04:10:06;;;;;;;11.18;8.40;;;6.70;99.90;;;;;;5050939;28;20410;-89
2021/10/01 04:12:33;;;;;;;12.75;8.55;;;6.70;99.90;;;;;;5051424;28;20381;-88
2021/10/01 04:14:59;;;;;;;12.27;8.70;;;6.70;99.90;;;;;;5051271;28;20370;-87
2021/10/01 04:17:24;;;;;;;9.13;7.77;;;6.70;99.90;;;;;;5050756;28;20470;-87
2021/10/01 04:19:50;;;;;;;12.87;8.83;;;6.80;99.90;;;;;;5051149;28;20732;-87
2021/10/01 04:22:16;;;;;;;10.48;8.30;;;6.70;99.90;;;;;;5051081;28;20910;-87
2021/10/01 04:24:42;;;;;;;13.35;8.15;;;6.80;99.90;;;;;;5069215;28;20477;-87
2021/10/01 04:27:08;;;;;;;8.53;7.73;;;6.70;99.90;;;;;;5051037;28;20967;-88
2021/10/01 04:29:33;;;;;;;10.27;8.67;;;6.70;99.90;;;;;;5051227;28;20410;-88
2021/10/01 04:32:01;;;;;;;9.60;8.10;;;6.70;99.90;;;;;;5050824;28;20370;-88
2021/10/01 04:34:32;;;;;;;15.38;9.00;;;6.70;99.90;;;;;;5069282;28;20389;-88
2021/10/01 04:36:58;;;;;;;10.25;8.48;;;6.70;99.90;;;;;;5050867;28;20418;-89
2021/10/01 04:39:24;;;;;;;9.50;8.47;;;6.80;99.90;;;;;;5073399;28;20463;-87
2021/10/01 04:41:49;;;;;;;10.93;8.77;;;6.70;99.90;;;;;;5067892;28;20454;-88
2021/10/01 04:44:15;;;;;;;11.15;8.07;;;6.70;99.90;;;;;;5030422;28;20902;-88
2021/10/01 04:46:40;;;;;;;10.23;8.10;;;6.70;99.90;;;;;;5030848;28;20441;-88
2021/10/01 04:49:06;;;;;;;9.00;8.00;;;6.80;99.90;;;;;;5031428;28;20407;-87
2021/10/01 04:51:34;;;;;;;12.70;8.40;;;6.80;99.90;;;;;;5047740;28;20762;-87
2021/10/01 04:53:59;;;;;;;11.27;8.13;;;6.80;99.90;;;;;;5042969;28;20409;-88
2021/10/01 04:56:25;;;;;;;9.93;8.40;;;6.70;99.90;;;;;;5029572;28;20385;-86
2021/10/01 04:58:51;;;;;;;10.43;8.57;;;6.70;99.90;;;;;;5045493;28;20383;-87
2021/10/01 05:01:16;;;;;;;10.53;8.43;;;6.70;99.90;;;;;;5052688;28;20376;-87
2021/10/01 05:03:42;;;;;;;9.00;8.10;;;6.70;99.90;;;;;;5036520;28;20391;-87
2021/10/01 05:06:07;;;;;;;9.15;8.23;;;6.70;99.90;;;;;;5034693;28;20391;-87
2021/10/01 05:08:33;;;;;;;9.90;7.77;;;6.70;99.90;;;;;;5037674;28;20399;-88
2021/10/01 05:10:58;;;;;;;8.75;7.93;;;6.70;99.90;;;;;;5022003;28;20384;-87
2021/10/01 05:13:24;;;;;;;9.20;8.18;;;6.70;99.90;;;;;;5034608;28;20384;-88
2021/10/01 05:15:51;;;;;;;10.97;8.50;;;6.70;99.90;;;;;;5055613;28;21147;-87
2021/10/01 05:18:17;;;;;;;13.70;8.43;;;6.70;99.90;;;;;;5017212;28;20989;-88
2021/10/01 05:20:44;;;;;;;11.98;8.13;;;6.70;99.90;;;;;;5032539;28;20379;-88
2021/10/01 05:23:09;;;;;;;10.75;8.07;;;6.80;99.90;;;;;;5033292;28;20419;-88
2021/10/01 05:25:35;;;;;;;7.90;7.10;;;6.80;99.90;;;;;;5043864;28;20429;-87
2021/10/01 05:28:01;;;;;;;9.30;8.38;;;6.80;99.90;;;;;;5032534;28;20475;-87
2021/10/01 05:30:27;;;;;;;10.50;8.15;;;6.80;99.90;;;;;;5032754;28;20391;-87
2021/10/01 05:32:52;;;;;;;8.65;7.80;;;6.80;99.90;;;;;;5051381;28;20379;-88
2021/10/01 05:35:18;;;;;;;11.13;8.57;;;6.90;99.90;;;;;;5033736;28;20812;-87
2021/10/01 05:37:45;;;;;;;9.80;8.45;;;6.90;99.90;;;;;;5033812;28;20379;-87
2021/10/01 05:40:12;;;;;;;9.93;8.15;;;6.90;99.90;;;;;;5051666;28;20383;-87
2021/10/01 05:42:37;;;;;;;8.83;7.43;;;7.00;99.90;;;;;;5033535;28;20383;-87
2021/10/01 05:45:05;;;;;;;8.70;7.80;;;7.10;99.90;;;;;;5033756;28;20388;-86
2021/10/01 05:47:31;;;;;;;8.35;7.25;;;7.10;99.90;;;;;;5033649;28;20466;-88
2021/10/01 05:50:01;;;;;;;10.67;7.13;;;7.20;99.90;;;;;;5033682;28;20495;-87
2021/10/01 05:52:49;;;;;;;12.20;7.03;;;7.30;99.90;;;;;;5051573;28;20376;-87
2021/10/01 05:55:13;;;;;;;7.43;6.33;;;7.40;99.90;;;;;;5051798;28;20470;-88
2021/10/01 05:57:38;;;;;;;8.17;6.17;;;7.50;99.90;;;;;;5035380;28;20376;-87
2021/10/01 06:00:06;;;;;;;7.75;6.50;;;7.70;99.90;;;;;;5051755;28;20815;-86
2021/10/01 06:02:31;;;;;;;7.10;6.13;;;7.80;99.90;;;;;;5051329;28;20376;-87
2021/10/01 06:04:57;;;;;;;7.90;6.47;;;7.90;99.90;;;;;;5051273;28;20715;-87
2021/10/01 06:07:23;;;;;;;6.77;6.03;;;8.00;99.90;;;;;;5033801;28;20877;-87
2021/10/01 06:09:49;;;;;;;10.93;6.35;;;8.20;99.90;;;;;;5032488;28;20400;-87
2021/10/01 06:12:16;;;;;;;8.48;5.50;;;8.20;99.90;;;;;;5033348;28;20384;-87
2021/10/01 06:14:44;;;;;;;7.22;5.32;;;8.40;99.90;;;;;;5051012;28;20368;-88
2021/10/01 06:17:12;;;;;;;8.80;5.40;;;8.50;99.90;;;;;;5032998;28;20379;-87
2021/10/01 06:19:40;;;;;;;7.60;4.63;;;8.60;99.90;;;;;;5050951;28;20382;-88
2021/10/01 06:22:07;;;;;;;8.07;4.68;;;8.70;99.90;;;;;;5032116;28;20490;-87
2021/10/01 06:24:33;;;;;;;10.50;4.68;;;8.80;99.90;;;;;;5036102;28;20381;-87
2021/10/01 06:26:58;;;;;;;5.97;4.07;;;9.00;99.90;;;;;;5013648;28;20374;-88
2021/10/01 06:29:24;;;;;;;6.50;3.85;;;9.10;99.90;;;;;;5050643;28;20414;-87
2021/10/01 06:31:50;;;;;;;6.72;3.90;;;9.20;99.90;;;;;;5032568;28;20885;-90
2021/10/01 06:34:16;;;;;;;6.93;3.80;;;9.30;99.90;;;;;;5036658;28;20380;-88
2021/10/01 06:36:42;;;;;;;5.38;3.38;;;9.40;99.90;;;;;;5032787;28;20384;-85
2021/10/01 06:39:09;;;;;;;8.35;3.95;;;9.50;99.90;;;;;;5050320;28;20377;-88
2021/10/01 06:41:35;;;;;;;9.23;3.90;;;9.60;99.90;;;;;;5032151;28;21008;-88
2021/10/01 06:44:04;;;;;;;5.68;3.92;;;9.50;99.90;;;;;;5032326;28;20388;-88
2021/10/01 06:46:51;;;;;;;6.47;3.67;;;9.60;99.90;;;;;;5050526;28;20798;-87
2021/10/01 06:52:11;;;;;;;6.53;3.45;;;9.70;99.90;;;;;;5049319;28;20435;-86
2021/10/01 07:22:29;;;;;;;3.80;2.57;;;11.10;99.90;;;;;;5050853;28;20483;-86
2021/10/01 08:19:46;;;;;;;3.70;1.48;;;14.00;99.90;;;;;;5060739;28;20451;-87
2021/10/01 08:22:13;;;;;;;4.00;2.10;;;14.00;99.90;;;;;;5036062;28;20396;-87
2021/10/01 08:24:39;;;;;;;5.53;1.95;;;14.10;99.90;;;;;;5030990;28;20920;-86
2021/10/01 08:27:05;;;;;;;4.07;2.00;;;14.30;99.90;;;;;;5030338;28;20955;-85
2021/10/01 08:29:33;;;;;;;5.30;1.92;;;14.40;99.90;;;;;;5048029;28;20884;-86
2021/10/01 08:32:00;;;;;;;5.93;1.90;;;14.60;99.90;;;;;;5047794;28;20869;-87
2021/10/01 08:34:30;;;;;;;4.05;1.90;;;14.70;99.90;;;;;;5049319;28;20430;-85
2021/10/01 08:36:58;;;;;;;4.80;1.95;;;14.70;99.90;;;;;;5030662;28;20392;-86
2021/10/01 08:39:24;;;;;;;4.93;1.95;;;14.60;99.90;;;;;;5030106;28;20588;-85
2021/10/01 08:41:51;;;;;;;4.90;2.10;;;14.60;99.90;;;;;;5030730;28;20411;-88
2021/10/01 08:44:17;;;;;;;4.63;1.77;;;14.60;99.90;;;;;;5047828;28;20375;-86
2021/10/01 08:46:47;;;;;;;5.07;1.63;;;14.60;99.90;;;;;;5033630;28;20378;-84
2021/10/01 08:49:13;;;;;;;7.85;2.15;;;14.60;99.90;;;;;;5028613;28;20405;-87
2021/10/01 08:51:40;;;;;;;4.93;1.80;;;14.60;99.90;;;;;;5011586;28;20388;-86
2021/10/01 08:54:06;;;;;;;3.47;1.60;;;14.50;99.90;;;;;;5010688;28;20406;-86
2021/10/01 08:56:33;;;;;;;3.45;2.00;;;14.60;99.90;;;;;;5021016;28;20389;-85
2021/10/01 08:59:00;;;;;;;6.13;1.90;;;14.80;99.90;;;;;;5037278;28;20426;-86
2021/10/01 09:01:26;;;;;;;4.90;1.55;;;14.80;99.90;;;;;;5037012;28;20386;-85
2021/10/01 09:03:52;;;;;;;2.77;1.53;;;14.90;99.90;;;;;;5054274;28;21206;-86
2021/10/01 09:06:18;;;;;;;6.10;1.75;;;14.90;99.90;;;;;;5037102;28;20417;-87
2021/10/01 09:08:57;;;;;;;4.60;1.70;;;15.00;99.90;;;;;;5037266;28;20466;-87
2021/10/01 09:11:30;;;;;;;6.10;1.42;;;15.30;99.90;;;;;;5047489;28;20385;-87
2021/10/01 09:14:01;;;;;;;3.70;1.58;;;15.50;99.90;;;;;;5050012;28;20374;-84
2021/10/01 09:16:27;;;;;;;3.85;1.50;;;15.60;99.90;;;;;;5068427;28;20386;-87
2021/10/01 09:18:52;;;;;;;3.78;1.67;;;15.70;99.90;;;;;;5050568;28;20378;-86
2021/10/01 09:21:21;;;;;;;7.63;2.10;;;15.80;99.90;;;;;;5050516;28;20400;-87
2021/10/01 09:24:15;;;;;;;3.25;1.58;;;15.90;99.90;;;;;;5009330;28;20828;-86
2021/10/01 09:26:52;;;;;;;6.75;1.83;;;16.00;99.90;;;;;;5012196;28;20479;-88
2021/10/01 09:29:34;;;;;;;6.50;1.50;;;16.10;99.90;;;;;;5027292;28;20801;-86
2021/10/01 09:32:08;;;;;;;4.55;1.55;;;16.20;99.90;;;;;;5028578;28;20378;-86
2021/10/01 09:34:53;;;;;;;4.30;1.50;;;16.30;99.90;;;;;;5026834;28;20397;-84
2021/10/01 09:37:31;;;;;;;9.55;1.77;;;16.50;99.90;;;;;;5027201;28;20396;-87
2021/10/01 09:39:59;;;;;;;4.18;1.55;;;16.50;99.90;;;;;;5029669;28;20387;-87
2021/10/01 09:42:33;;;;;;;9.00;1.60;;;16.50;99.90;;;;;;5029786;28;20884;-87
2021/10/01 09:45:05;;;;;;;6.45;1.55;;;16.50;99.90;;;;;;5016287;28;20399;-86
2021/10/01 09:47:36;;;;;;;4.87;1.20;;;16.60;99.90;;;;;;5033899;28;21012;-87
2021/10/01 09:50:26;;;;;;;2.65;1.50;;;16.70;99.90;;;;;;5034773;28;20414;-86
2021/10/01 09:52:58;;;;;;;3.90;1.20;;;16.90;99.90;;;;;;5032495;28;20438;-84
2021/10/01 09:55:33;;;;;;;3.83;1.35;;;16.90;99.90;;;;;;5033333;28;21193;-86
2021/10/01 09:58:02;;;;;;;3.17;1.10;;;16.90;99.90;;;;;;5023053;28;20394;-86
2021/10/01 10:00:48;;;;;;;5.30;1.67;;;16.90;99.90;;;;;;5053287;28;20397;-86
2021/10/01 10:03:23;;;;;;;5.07;1.45;;;17.00;99.90;;;;;;5033648;28;20467;-86
2021/10/01 10:06:02;;;;;;;6.10;1.80;;;16.90;99.90;;;;;;5033039;28;20971;-87
2021/10/01 10:08:30;;;;;;;5.97;1.60;;;16.90;99.90;;;;;;5050721;28;20946;-86
2021/10/01 10:10:58;;;;;;;8.95;1.52;;;17.10;99.90;;;;;;5032933;28;20454;-86
2021/10/01 10:13:37;;;;;;;3.15;1.50;;;17.20;99.90;;;;;;5031750;28;20372;-86
2021/10/01 10:16:08;;;;;;;4.38;1.35;;;17.40;99.90;;;;;;5041408;28;20458;-86
2021/10/01 10:18:34;;;;;;;5.22;1.42;;;17.30;99.90;;;;;;5052472;28;20381;-85
2021/10/01 10:21:00;;;;;;;2.72;1.30;;;17.20;99.90;;;;;;5032996;28;20458;-86
2021/10/01 10:23:26;;;;;;;3.40;1.38;;;17.20;99.90;;;;;;5032734;28;20380;-87
2021/10/01 10:25:51;;;;;;;6.17;1.40;;;17.40;99.90;;;;;;5032836;28;20711;-86
2021/10/01 10:28:17;;;;;;;13.95;1.60;;;17.40;99.90;;;;;;5037030;28;21046;-84
2021/10/01 10:30:43;;;;;;;9.57;1.60;;;17.50;99.90;;;;;;5032588;28;20451;-85
2021/10/01 10:33:38;;;;;;;3.65;1.15;;;17.60;99.90;;;;;;5032722;28;20399;-84
2021/10/01 10:36:36;;;;;;;5.75;1.42;;;17.70;99.90;;;;;;5050401;28;20376;-86
2021/10/01 10:39:11;;;;;;;4.90;1.38;;;17.60;99.90;;;;;;5033382;28;20383;-85
2021/10/01 10:41:45;;;;;;;4.97;1.50;;;17.60;99.90;;;;;;5033456;28;20934;-87
2021/10/01 10:44:13;;;;;;;2.65;1.10;;;17.60;99.90;;;;;;5033495;28;20387;-87
2021/10/01 10:46:44;;;;;;;6.60;1.50;;;17.70;99.90;;;;;;5033687;28;21069;-86
2021/10/01 10:49:19;;;;;;;5.55;1.33;;;17.70;99.90;;;;;;5051000;28;20494;-85
2021/10/01 10:52:01;;;;;;;4.65;1.10;;;17.70;99.90;;;;;;5050797;28;20395;-85
2021/10/01 10:54:33;;;;;;;8.60;1.63;;;17.60;99.90;;;;;;5032619;28;20399;-85
2021/10/01 10:57:22;;;;;;;6.00;1.40;;;17.70;99.90;;;;;;5029913;28;20399;-87
2021/10/01 10:59:53;;;;;;;3.90;1.23;;;17.70;99.90;;;;;;5050910;28;20384;-87
2021/10/01 11:02:41;;;;;;;2.93;1.30;;;17.90;99.90;;;;;;5032823;28;20407;-85
2021/10/01 11:05:20;;;;;;;6.75;1.70;;;17.70;99.90;;;;;;5050773;28;20380;-87
2021/10/01 11:07:57;;;;;;;7.60;1.98;;;17.50;99.90;;;;;;5050513;28;20388;-84
2021/10/01 11:10:39;;;;;;;4.00;1.20;;;17.50;99.90;;;;;;5032645;28;20415;-87
2021/10/01 11:13:23;;;;;;;3.88;1.30;;;17.60;99.90;;;;;;5032753;28;20458;-84
2021/10/01 11:16:17;;;;;;;6.40;1.52;;;17.70;99.90;;;;;;5032651;28;20469;-86
2021/10/01 11:18:45;;;;;;;3.58;1.40;;;17.60;99.90;;;;;;5030615;28;20388;-86
2021/10/01 11:21:26;;;;;;;4.40;1.00;;;17.70;99.90;;;;;;5050394;28;20461;-86
2021/10/01 11:24:15;;;;;;;7.68;1.75;;;17.80;99.90;;;;;;5050588;28;20415;-85
2021/10/01 11:26:44;;;;;;;3.73;1.40;;;17.90;99.90;;;;;;5049871;28;20376;-86
2021/10/01 11:29:23;;;;;;;5.05;1.25;;;17.80;99.90;;;;;;5032427;28;20411;-86
2021/10/01 11:31:53;;;;;;;3.45;1.38;;;17.90;99.90;;;;;;5050946;28;20773;-86
2021/10/01 11:34:39;;;;;;;4.15;1.20;;;17.90;99.90;;;;;;5036139;28;20380;-87
2021/10/01 11:37:22;;;;;;;9.30;1.98;;;17.80;99.90;;;;;;5035068;28;20372;-87
2021/10/01 11:39:48;;;;;;;4.78;1.15;;;17.80;99.90;;;;;;5035265;28;20478;-85
2021/10/01 11:42:30;;;;;;;8.85;1.70;;;17.70;99.90;;;;;;5035106;28;20459;-86
2021/10/01 11:44:57;;;;;;;5.53;1.50;;;17.80;99.90;;;;;;5035280;28;20441;-84
2021/10/01 11:47:23;;;;;;;4.57;1.38;;;17.90;99.90;;;;;;5034316;28;20719;-84
2021/10/01 11:49:54;;;;;;;3.92;1.30;;;17.90;99.90;;;;;;5045075;28;20456;-86
2021/10/01 11:52:29;;;;;;;4.18;1.45;;;17.90;99.90;;;;;;5032099;28;20398;-88
2021/10/01 11:55:00;;;;;;;3.03;1.20;;;18.00;99.90;;;;;;5024004;28;20392;-85
2021/10/01 11:57:41;;;;;;;6.65;1.73;;;18.00;99.90;;;;;;5052195;28;20422;-85
2021/10/01 12:00:10;;;;;;;3.80;1.35;;;18.00;99.90;;;;;;5034614;28;20387;-87
2021/10/01 12:02:40;;;;;;;6.05;1.33;;;17.90;99.90;;;;;;5052298;28;20375;-84
2021/10/01 12:05:20;;;;;;;4.78;1.17;;;17.90;99.90;;;;;;5051730;28;20465;-86
2021/10/01 12:07:53;;;;;;;7.78;1.70;;;18.00;99.90;;;;;;5033544;28;20376;-85
2021/10/01 12:10:20;;;;;;;2.90;1.33;;;18.00;99.90;;;;;;5052727;28;20400;-84
2021/10/01 12:13:07;;;;;;;3.00;1.38;;;18.00;99.90;;;;;;5034694;28;20396;-88
2021/10/01 12:15:35;;;;;;;8.10;1.70;;;18.00;99.90;;;;;;5034994;28;20383;-86
2021/10/01 12:18:01;;;;;;;5.97;1.42;;;18.00;99.90;;;;;;5034846;28;20430;-85
2021/10/01 12:20:26;;;;;;;5.15;1.27;;;17.90;99.90;;;;;;5035024;28;20371;-86
2021/10/01 12:22:52;;;;;;;6.20;1.40;;;17.80;99.90;;;;;;5052717;28;20367;-83
2021/10/01 12:25:25;;;;;;;5.15;1.30;;;17.90;99.90;;;;;;5034664;28;20377;-86
2021/10/01 12:27:51;;;;;;;8.20;1.80;;;18.00;99.90;;;;;;5052388;28;20391;-85
2021/10/01 12:30:20;;;;;;;4.68;1.48;;;18.00;99.90;;;;;;5034531;28;20396;-84
2021/10/01 12:32:52;;;;;;;9.65;1.42;;;18.10;99.90;;;;;;5038445;28;20380;-86
2021/10/01 12:35:18;;;;;;;5.53;1.55;;;18.10;99.90;;;;;;5059068;28;20537;-87
2021/10/01 12:37:43;;;;;;;7.65;1.67;;;18.10;99.90;;;;;;5043111;28;20474;-85
2021/10/01 12:40:12;;;;;;;4.57;1.40;;;18.10;99.90;;;;;;5059475;28;20880;-83
2021/10/01 12:42:39;;;;;;;3.97;1.77;;;18.20;99.90;;;;;;5053216;28;20776;-85
2021/10/01 12:45:14;;;;;;;2.92;1.60;;;18.20;99.90;;;;;;5041992;28;20384;-85
2021/10/01 12:47:44;;;;;;;3.65;1.48;;;18.20;99.90;;;;;;5039216;28;20473;-88
2021/10/01 12:50:21;;;;;;;3.22;1.20;;;18.10;99.90;;;;;;5058442;28;20400;-87
2021/10/01 12:53:11;;;;;;;5.43;1.50;;;18.10;99.90;;;;;;5042246;28;20387;-85
2021/10/01 12:55:38;;;;;;;8.68;1.58;;;18.20;99.90;;;;;;5029693;28;20925;-83
2021/10/01 12:58:03;;;;;;;6.43;1.43;;;18.20;99.90;;;;;;5048908;28;20407;-82
2021/10/01 13:00:31;;;;;;;4.95;1.60;;;18.10;99.90;;;;;;5049212;28;20540;-85
2021/10/01 13:03:03;;;;;;;5.80;1.65;;;18.10;99.90;;;;;;5030840;28;20411;-85
2021/10/01 13:05:35;;;;;;;7.15;1.73;;;18.10;99.90;;;;;;5048886;28;20384;-85
2021/10/01 13:08:03;;;;;;;4.03;1.38;;;18.10;99.90;;;;;;5032009;28;20406;-86
2021/10/01 13:10:40;;;;;;;4.45;1.45;;;18.20;99.90;;;;;;5046421;28;20572;-88
2021/10/01 13:13:13;;;;;;;9.57;1.65;;;18.20;99.90;;;;;;5029644;28;20392;-85
2021/10/01 13:15:46;;;;;;;3.30;1.23;;;18.10;99.90;;;;;;5029703;28;20383;-87
2021/10/01 13:18:27;;;;;;;10.23;2.05;;;18.10;99.90;;;;;;5029470;28;20835;-85
2021/10/01 13:20:55;;;;;;;3.30;1.05;;;18.10;99.90;;;;;;5033700;28;21138;-87
2021/10/01 13:23:44;;;;;;;10.20;1.60;;;18.20;99.90;;;;;;5034416;28;20382;-86
2021/10/01 13:26:10;;;;;;;4.72;1.30;;;18.20;99.90;;;;;;5027045;28;20380;-86
2021/10/01 13:28:35;;;;;;;4.20;1.20;;;18.20;99.90;;;;;;5035856;28;20406;-87
2021/10/01 13:31:01;;;;;;;4.13;1.30;;;18.00;99.90;;;;;;5044965;28;20391;-87
2021/10/01 13:33:27;;;;;;;8.57;1.40;;;18.00;99.90;;;;;;5060021;28;20390;-86
2021/10/01 13:35:54;;;;;;;3.60;1.25;;;18.00;99.90;;;;;;5044343;28;20407;-85
2021/10/01 13:38:33;;;;;;;6.93;1.25;;;18.00;99.90;;;;;;5043375;28;20459;-84
2021/10/01 13:41:00;;;;;;;9.38;1.42;;;18.00;99.90;;;;;;5041773;28;20391;-87
2021/10/01 13:43:27;;;;;;;3.10;1.05;;;18.00;99.90;;;;;;5060393;28;20460;-85
2021/10/01 13:45:52;;;;;;;3.92;1.30;;;18.00;99.90;;;;;;5041343;28;20385;-86
2021/10/01 13:48:18;;;;;;;4.53;1.35;;;18.00;99.90;;;;;;5059955;28;20739;-85
2021/10/01 13:50:44;;;;;;;5.37;1.60;;;18.00;99.90;;;;;;5042171;28;20373;-86
2021/10/01 13:53:09;;;;;;;4.30;1.45;;;17.90;99.90;;;;;;5050625;28;20386;-87
2021/10/01 13:55:35;;;;;;;6.00;1.50;;;17.90;99.90;;;;;;5041991;28;20391;-87
2021/10/01 13:58:01;;;;;;;3.75;1.35;;;17.90;99.90;;;;;;5059259;28;20372;-86
2021/10/01 14:00:26;;;;;;;2.97;1.40;;;17.90;99.90;;;;;;5063298;28;20390;-85
2021/10/01 14:02:55;;;;;;;10.30;1.73;;;17.90;99.90;;;;;;5065073;28;20389;-89
2021/10/01 14:05:20;;;;;;;5.80;1.30;;;17.90;99.90;;;;;;5060872;28;20921;-84
2021/10/01 14:07:47;;;;;;;8.30;1.40;;;17.80;99.90;;;;;;5039573;28;20483;-86
2021/10/01 14:10:18;;;;;;;6.20;1.60;;;17.80;99.90;;;;;;5042970;28;20409;-89
2021/10/01 14:12:50;;;;;;;7.90;1.48;;;17.80;99.90;;;;;;5062646;28;20381;-88
2021/10/01 14:15:29;;;;;;;1.83;1.08;;;17.70;99.90;;;;;;5040602;28;20882;-87
2021/10/01 14:18:18;;;;;;;3.30;1.38;;;17.70;99.90;;;;;;5040659;28;20402;-86
2021/10/01 14:20:44;;;;;;;8.18;1.35;;;17.70;99.90;;;;;;5059761;28;20380;-86
2021/10/01 14:23:11;;;;;;;5.55;1.48;;;17.70;99.90;;;;;;5059398;28;20402;-86
2021/10/01 14:25:38;;;;;;;2.70;1.10;;;17.70;99.90;;;;;;5066622;28;20383;-86
2021/10/01 14:28:07;;;;;;;5.93;1.70;;;17.70;99.90;;;;;;5060993;28;20844;-87
2021/10/01 14:30:35;;;;;;;9.23;2.00;;;17.60;99.90;;;;;;5041116;28;20442;-86